createdAt,value
2023-03-01T00:00:04.858Z,101325.00
2023-03-01T00:00:36.319Z,101332.94
2023-03-01T00:01:07.833Z,101326.66
2023-03-01T00:01:39.324Z,101327.97
2023-03-01T00:02:10.829Z,101326.91
2023-03-01T00:02:42.375Z,101328.56
2023-03-01T00:03:16.629Z,101324.75
2023-03-01T00:03:48.234Z,101321.19
2023-03-01T00:04:19.824Z,101320.13
2023-03-01T00:04:51.271Z,101319.88
2023-03-01T00:05:22.711Z,101322.84
2023-03-01T00:05:54.258Z,101318.78
2023-03-01T00:06:25.732Z,101318.22
2023-03-01T00:06:57.190Z,101312.78
2023-03-01T00:07:28.698Z,101315.50
2023-03-01T00:08:00.331Z,101315.00
2023-03-01T00:08:31.807Z,101312.53
2023-03-01T00:09:03.329Z,101312.53
2023-03-01T00:09:35.403Z,101315.50
2023-03-01T00:10:06.924Z,101313.91
2023-03-01T00:10:39.957Z,101308.47
2023-03-01T00:11:11.421Z,101321.28
2023-03-01T00:11:42.925Z,101310.63
2023-03-01T00:12:14.466Z,101313.59
2023-03-01T00:12:45.891Z,101315.50
2023-03-01T00:13:17.304Z,101314.94
2023-03-01T00:13:48.835Z,101315.75
2023-03-01T00:14:20.375Z,101312.19
2023-03-01T00:14:51.914Z,101313.28
2023-03-01T00:15:23.477Z,101311.63
2023-03-01T00:15:54.919Z,101307.00
2023-03-01T00:16:26.486Z,101309.72
2023-03-01T00:16:58.013Z,101306.19
2023-03-01T00:17:29.648Z,101309.47
2023-03-01T00:18:01.081Z,101316.25
2023-03-01T00:18:32.556Z,101313.28
2023-03-01T00:19:04.027Z,101308.91
2023-03-01T00:19:35.504Z,101301.81
2023-03-01T00:20:07.082Z,101308.09
2023-03-01T00:20:38.571Z,101304.53
2023-03-01T00:21:10.064Z,101303.47
2023-03-01T00:21:41.550Z,101308.16
2023-03-01T00:22:13.050Z,101299.41
2023-03-01T00:22:44.474Z,101305.69
2023-03-01T00:23:15.939Z,101300.72
2023-03-01T00:23:47.359Z,101300.72
2023-03-01T00:24:18.808Z,101298.00
2023-03-01T00:24:50.273Z,101306.75
2023-03-01T00:25:21.800Z,101305.34
2023-03-01T00:25:53.268Z,101306.19
2023-03-01T00:26:27.518Z,101305.34
2023-03-01T00:26:58.972Z,101310.81
2023-03-01T00:27:30.448Z,101305.34
2023-03-01T00:28:01.864Z,101305.09
2023-03-01T00:28:33.324Z,101308.66
2023-03-01T00:29:04.765Z,101305.09
2023-03-01T00:29:36.255Z,101309.16
2023-03-01T00:30:07.671Z,101303.19
2023-03-01T00:30:39.241Z,101307.81
2023-03-01T00:31:10.797Z,101308.09
2023-03-01T00:31:42.300Z,101303.19
2023-03-01T00:32:13.756Z,101303.19
2023-03-01T00:32:45.309Z,101299.41
2023-03-01T00:33:16.804Z,101304.34
2023-03-01T00:33:48.279Z,101298.06
2023-03-01T00:34:19.785Z,101310.31
2023-03-01T00:34:51.237Z,101304.03
2023-03-01T00:35:22.775Z,101307.81
2023-03-01T00:35:54.323Z,101298.00
2023-03-01T00:36:25.906Z,101303.47
2023-03-01T00:36:57.383Z,101296.09
2023-03-01T00:37:31.978Z,101297.19
2023-03-01T00:38:03.431Z,101293.63
2023-03-01T00:38:36.830Z,101293.63
2023-03-01T00:39:08.433Z,101295.03
2023-03-01T00:39:40.065Z,101281.41
2023-03-01T00:40:11.494Z,101294.47
2023-03-01T00:40:42.957Z,101288.75
2023-03-01T00:41:14.442Z,101289.31
2023-03-01T00:41:45.964Z,101295.59
2023-03-01T00:42:17.600Z,101289.31
2023-03-01T00:42:49.065Z,101292.31
2023-03-01T00:43:20.515Z,101289.00
2023-03-01T00:43:51.994Z,101292.56
2023-03-01T00:44:23.448Z,101292.56
2023-03-01T00:44:54.964Z,101293.63
2023-03-01T00:45:26.410Z,101291.47
2023-03-01T00:45:57.853Z,101300.78
2023-03-01T00:46:29.770Z,101293.44
2023-03-01T00:47:01.611Z,101288.56
2023-03-01T00:47:33.031Z,101292.88
2023-03-01T00:48:07.495Z,101289.31
2023-03-01T00:48:38.910Z,101292.06
2023-03-01T00:49:10.399Z,101292.31
2023-03-01T00:49:41.862Z,101292.31
2023-03-01T00:50:13.302Z,101298.31
2023-03-01T00:50:44.729Z,101289.31
2023-03-01T00:51:16.200Z,101290.66
2023-03-01T00:51:47.761Z,101287.69
2023-03-01T00:52:19.247Z,101290.41
2023-03-01T00:52:50.744Z,101284.38
2023-03-01T00:53:22.178Z,101282.72
2023-03-01T00:53:53.696Z,101283.56
2023-03-01T00:54:25.131Z,101286.84
2023-03-01T00:54:56.685Z,101284.38
2023-03-01T00:55:28.166Z,101278.69
2023-03-01T00:55:59.621Z,101282.22
2023-03-01T00:56:31.452Z,101284.13
2023-03-01T00:57:03.366Z,101280.59
2023-03-01T00:57:34.859Z,101270.75
2023-03-01T00:58:06.269Z,101281.91
2023-03-01T00:58:37.746Z,101277.03
2023-03-01T00:59:09.212Z,101276.47
2023-03-01T00:59:40.763Z,101278.94
2023-03-01T01:00:12.218Z,101276.47
2023-03-01T01:00:43.600Z,101276.47
2023-03-01T01:01:15.201Z,101274.56
2023-03-01T01:01:46.758Z,101271.59
2023-03-01T01:02:18.330Z,101271.84
2023-03-01T01:02:49.992Z,101271.34
2023-03-01T01:03:21.630Z,101271.91
2023-03-01T01:03:53.134Z,101275.13
2023-03-01T01:04:24.615Z,101272.41
2023-03-01T01:04:56.129Z,101269.75
2023-03-01T01:05:27.567Z,101270.81
2023-03-01T01:05:58.994Z,101273.81
2023-03-01T01:06:30.748Z,101268.59
2023-03-01T01:07:02.553Z,101275.13
2023-03-01T01:07:34.052Z,101269.94
2023-03-01T01:08:05.453Z,101269.69
2023-03-01T01:08:36.880Z,101270.75
2023-03-01T01:09:08.369Z,101266.44
2023-03-01T01:09:39.813Z,101265.63
2023-03-01T01:10:11.250Z,101265.06
2023-03-01T01:10:42.706Z,101271.34
2023-03-01T01:11:14.124Z,101265.31
2023-03-01T01:11:45.712Z,101268.34
2023-03-01T01:12:17.274Z,101263.47
2023-03-01T01:12:48.836Z,101264.56
2023-03-01T01:13:20.267Z,101263.16
2023-03-01T01:13:51.732Z,101259.91
2023-03-01T01:14:23.197Z,101259.91
2023-03-01T01:14:54.733Z,101256.69
2023-03-01T01:15:26.163Z,101258.53
2023-03-01T01:15:57.786Z,101257.69
2023-03-01T01:16:29.706Z,101254.72
2023-03-01T01:17:01.342Z,101249.78
2023-03-01T01:17:32.893Z,101252.25
2023-03-01T01:18:04.331Z,101258.78
2023-03-01T01:18:35.720Z,101251.69
2023-03-01T01:19:07.175Z,101261.50
2023-03-01T01:19:38.609Z,101253.34
2023-03-01T01:20:10.079Z,101254.97
2023-03-01T01:20:41.560Z,101257.97
2023-03-01T01:21:13.044Z,101257.97
2023-03-01T01:21:44.519Z,101261.50
2023-03-01T01:22:15.976Z,101262.00
2023-03-01T01:22:47.487Z,101255.75
2023-03-01T01:23:18.972Z,101262.25
2023-03-01T01:23:50.433Z,101264.75
2023-03-01T01:24:21.911Z,101263.66
2023-03-01T01:24:53.378Z,101265.06
2023-03-01T01:25:24.796Z,101262.59
2023-03-01T01:25:56.261Z,101256.31
2023-03-01T01:26:27.686Z,101257.13
2023-03-01T01:26:59.090Z,101259.03
2023-03-01T01:27:30.603Z,101260.94
2023-03-01T01:28:02.171Z,101257.63
2023-03-01T01:28:33.642Z,101256.56
2023-03-01T01:29:05.103Z,101254.41
2023-03-01T01:29:36.603Z,101256.88
2023-03-01T01:30:08.076Z,101254.66
2023-03-01T01:30:39.604Z,101252.75
2023-03-01T01:31:11.179Z,101251.19
2023-03-01T01:31:42.718Z,101256.88
2023-03-01T01:32:14.205Z,101256.88
2023-03-01T01:32:45.683Z,101257.38
2023-03-01T01:33:17.228Z,101260.13
2023-03-01T01:33:48.692Z,101265.31
2023-03-01T01:34:20.299Z,101262.34
2023-03-01T01:34:51.804Z,101265.06
2023-03-01T01:35:23.297Z,101261.75
2023-03-01T01:35:55.000Z,101262.84
2023-03-01T01:36:26.453Z,101256.56
2023-03-01T01:36:57.885Z,101262.59
2023-03-01T01:37:29.337Z,101257.38
2023-03-01T01:38:00.770Z,101257.63
2023-03-01T01:38:32.331Z,101256.56
2023-03-01T01:39:03.871Z,101257.63
2023-03-01T01:39:35.334Z,101260.63
2023-03-01T01:40:06.751Z,101265.81
2023-03-01T01:40:38.246Z,101259.78
2023-03-01T01:41:09.709Z,101261.44
2023-03-01T01:41:41.248Z,101265.56
2023-03-01T01:42:12.718Z,101268.53
2023-03-01T01:42:44.136Z,101258.72
2023-03-01T01:43:15.540Z,101263.09
2023-03-01T01:43:47.055Z,101260.38
2023-03-01T01:44:18.522Z,101258.47
2023-03-01T01:44:49.977Z,101269.38
2023-03-01T01:45:21.470Z,101260.13
2023-03-01T01:45:52.914Z,101267.22
2023-03-01T01:46:24.501Z,101263.91
2023-03-01T01:46:56.003Z,101270.19
2023-03-01T01:47:29.739Z,101266.97
2023-03-01T01:48:01.157Z,101268.34
2023-03-01T01:48:32.613Z,101273.47
2023-03-01T01:49:04.104Z,101266.63
2023-03-01T01:49:35.527Z,101273.16
2023-03-01T01:50:06.984Z,101262.53
2023-03-01T01:50:38.435Z,101265.25
2023-03-01T01:51:09.953Z,101264.16
2023-03-01T01:51:41.398Z,101266.31
2023-03-01T01:52:12.891Z,101260.03
2023-03-01T01:52:44.343Z,101254.34
2023-03-01T01:53:15.914Z,101259.53
2023-03-01T01:53:47.339Z,101251.13
2023-03-01T01:54:18.770Z,101250.53
2023-03-01T01:54:50.209Z,101248.13
2023-03-01T01:55:21.700Z,101249.34
2023-03-01T01:55:53.398Z,101240.09
2023-03-01T01:56:24.861Z,101240.34
2023-03-01T01:56:56.340Z,101248.50
2023-03-01T01:57:27.840Z,101240.84
2023-03-01T01:58:02.172Z,101245.72
2023-03-01T01:58:33.626Z,101245.97
2023-03-01T01:59:05.114Z,101240.53
2023-03-01T01:59:36.608Z,101247.38
2023-03-01T02:00:08.159Z,101240.28
2023-03-01T02:00:39.679Z,101248.72
2023-03-01T02:01:11.160Z,101239.97
2023-03-01T02:01:42.717Z,101244.66
2023-03-01T02:02:14.129Z,101245.47
2023-03-01T02:02:45.739Z,101243.81
2023-03-01T02:03:17.468Z,101241.59
2023-03-01T02:03:49.025Z,101239.41
2023-03-01T02:04:20.530Z,101235.03
2023-03-01T02:04:51.960Z,101230.66
2023-03-01T02:05:23.410Z,101234.75
2023-03-01T02:05:55.820Z,101237.50
2023-03-01T02:06:27.438Z,101229.56
2023-03-01T02:06:58.910Z,101229.25
2023-03-01T02:07:30.366Z,101231.97
2023-03-01T02:08:01.865Z,101227.94
2023-03-01T02:08:33.303Z,101235.28
2023-03-01T02:09:04.728Z,101233.88
2023-03-01T02:09:36.164Z,101233.06
2023-03-01T02:10:07.618Z,101235.28
2023-03-01T02:10:39.116Z,101230.66
2023-03-01T02:11:10.585Z,101232.81
2023-03-01T02:11:42.105Z,101230.34
2023-03-01T02:12:13.536Z,101230.91
2023-03-01T02:12:44.993Z,101234.69
2023-03-01T02:13:16.473Z,101235.53
2023-03-01T02:13:47.973Z,101231.16
2023-03-01T02:14:19.410Z,101231.97
2023-03-01T02:14:51.006Z,101235.53
2023-03-01T02:15:22.497Z,101227.59
2023-03-01T02:15:53.959Z,101234.13
2023-03-01T02:16:28.120Z,101234.44
2023-03-01T02:16:59.637Z,101228.75
2023-03-01T02:17:31.063Z,101226.28
2023-03-01T02:18:02.493Z,101225.72
2023-03-01T02:18:34.011Z,101226.53
2023-03-01T02:19:05.446Z,101224.63
2023-03-01T02:19:36.914Z,101222.97
2023-03-01T02:20:08.346Z,101228.44
2023-03-01T02:20:39.829Z,101227.09
2023-03-01T02:21:11.320Z,101227.94
2023-03-01T02:21:42.743Z,101227.66
2023-03-01T02:22:17.030Z,101228.19
2023-03-01T02:22:48.542Z,101226.59
2023-03-01T02:23:20.044Z,101228.50
2023-03-01T02:23:51.627Z,101230.41
2023-03-01T02:24:23.103Z,101227.09
2023-03-01T02:24:54.573Z,101225.19
2023-03-01T02:25:26.063Z,101223.56
2023-03-01T02:25:57.499Z,101225.72
2023-03-01T02:26:29.256Z,101218.09
2023-03-01T02:27:01.012Z,101226.78
2023-03-01T02:27:32.437Z,101221.41
2023-03-01T02:28:03.897Z,101221.16
2023-03-01T02:28:35.333Z,101225.25
2023-03-01T02:29:06.934Z,101223.63
2023-03-01T02:29:38.486Z,101225.25
2023-03-01T02:30:09.990Z,101224.75
2023-03-01T02:30:41.443Z,101216.25
2023-03-01T02:31:12.920Z,101227.72
2023-03-01T02:31:46.649Z,101217.66
2023-03-01T02:32:18.140Z,101224.69
2023-03-01T02:32:49.693Z,101225.75
2023-03-01T02:33:21.179Z,101224.94
2023-03-01T02:33:52.674Z,101226.03
2023-03-01T02:34:24.123Z,101225.44
2023-03-01T02:34:55.589Z,101228.19
2023-03-01T02:35:27.114Z,101221.34
2023-03-01T02:35:58.599Z,101224.63
2023-03-01T02:36:30.480Z,101219.44
2023-03-01T02:37:02.130Z,101224.06
2023-03-01T02:37:33.643Z,101223.22
2023-03-01T02:38:05.032Z,101222.41
2023-03-01T02:38:36.554Z,101221.06
2023-03-01T02:39:07.997Z,101221.34
2023-03-01T02:39:39.443Z,101223.81
2023-03-01T02:40:10.896Z,101226.28
2023-03-01T02:40:42.299Z,101227.66
2023-03-01T02:41:13.792Z,101221.66
2023-03-01T02:41:45.208Z,101220.25
2023-03-01T02:42:16.757Z,101227.09
2023-03-01T02:42:48.260Z,101222.47
2023-03-01T02:43:19.719Z,101226.28
2023-03-01T02:43:51.305Z,101226.03
2023-03-01T02:44:22.790Z,101224.13
2023-03-01T02:44:54.304Z,101227.41
2023-03-01T02:45:25.859Z,101227.41
2023-03-01T02:45:57.312Z,101228.75
2023-03-01T02:46:29.060Z,101232.28
2023-03-01T02:47:00.762Z,101223.63
2023-03-01T02:47:32.234Z,101231.22
2023-03-01T02:48:03.708Z,101228.25
2023-03-01T02:48:35.186Z,101223.88
2023-03-01T02:49:06.677Z,101230.72
2023-03-01T02:49:38.168Z,101222.53
2023-03-01T02:50:09.638Z,101224.19
2023-03-01T02:50:41.054Z,101232.03
2023-03-01T02:51:12.539Z,101226.59
2023-03-01T02:51:43.974Z,101229.56
2023-03-01T02:52:18.363Z,101230.41
2023-03-01T02:52:49.767Z,101222.97
2023-03-01T02:53:21.199Z,101225.44
2023-03-01T02:53:52.750Z,101229.81
2023-03-01T02:54:24.250Z,101223.28
2023-03-01T02:54:57.515Z,101218.41
2023-03-01T02:55:28.979Z,101219.56
2023-03-01T02:56:00.458Z,101227.66
2023-03-01T02:56:32.181Z,101223.88
2023-03-01T02:57:03.861Z,101222.22
2023-03-01T02:57:35.331Z,101220.31
2023-03-01T02:58:09.394Z,101217.09
2023-03-01T02:58:40.862Z,101206.50
2023-03-01T02:59:12.349Z,101213.59
2023-03-01T02:59:43.900Z,101208.66
2023-03-01T03:00:15.397Z,101220.88
2023-03-01T03:00:46.853Z,101216.25
2023-03-01T03:01:18.431Z,101221.16
2023-03-01T03:01:49.951Z,101216.50
2023-03-01T03:02:21.426Z,101212.72
2023-03-01T03:02:52.879Z,101211.56
2023-03-01T03:03:24.547Z,101212.16
2023-03-01T03:03:56.042Z,101211.56
2023-03-01T03:04:27.531Z,101211.00
2023-03-01T03:04:59.015Z,101209.94
2023-03-01T03:05:30.470Z,101207.00
2023-03-01T03:06:03.626Z,101214.09
2023-03-01T03:06:35.080Z,101215.38
2023-03-01T03:07:06.540Z,101210.25
2023-03-01T03:07:37.983Z,101214.31
2023-03-01T03:08:09.460Z,101208.59
2023-03-01T03:08:40.974Z,101205.31
2023-03-01T03:09:12.396Z,101206.88
2023-03-01T03:09:43.810Z,101206.06
2023-03-01T03:10:15.367Z,101208.53
2023-03-01T03:10:46.777Z,101203.09
2023-03-01T03:11:18.252Z,101204.16
2023-03-01T03:11:49.664Z,101203.34
2023-03-01T03:12:21.101Z,101196.00
2023-03-01T03:12:52.597Z,101209.63
2023-03-01T03:13:24.066Z,101205.25
2023-03-01T03:13:55.575Z,101206.31
2023-03-01T03:14:26.980Z,101202.84
2023-03-01T03:14:58.421Z,101200.16
2023-03-01T03:15:32.823Z,101203.66
2023-03-01T03:16:04.294Z,101210.50
2023-03-01T03:16:38.028Z,101206.94
2023-03-01T03:17:09.584Z,101210.25
2023-03-01T03:17:41.008Z,101205.38
2023-03-01T03:18:15.371Z,101209.66
2023-03-01T03:18:46.905Z,101208.03
2023-03-01T03:19:18.470Z,101196.88
2023-03-01T03:19:49.921Z,101201.19
2023-03-01T03:20:21.388Z,101195.53
2023-03-01T03:20:52.956Z,101202.00
2023-03-01T03:21:24.430Z,101195.78
2023-03-01T03:21:55.962Z,101197.69
2023-03-01T03:22:27.484Z,101198.28
2023-03-01T03:22:58.968Z,101203.16
2023-03-01T03:23:30.469Z,101206.38
2023-03-01T03:24:01.915Z,101209.94
2023-03-01T03:24:33.353Z,101208.59
2023-03-01T03:25:04.806Z,101200.69
2023-03-01T03:25:36.242Z,101205.38
2023-03-01T03:26:08.337Z,101209.09
2023-03-01T03:26:39.812Z,101201.75
2023-03-01T03:27:11.313Z,101193.84
2023-03-01T03:27:42.775Z,101203.66
2023-03-01T03:28:14.290Z,101197.69
2023-03-01T03:28:45.835Z,101202.06
2023-03-01T03:29:17.300Z,101201.81
2023-03-01T03:29:48.725Z,101205.56
2023-03-01T03:30:20.213Z,101198.78
2023-03-01T03:30:51.654Z,101197.44
2023-03-01T03:31:23.239Z,101207.78
2023-03-01T03:31:57.840Z,101205.31
2023-03-01T03:32:29.417Z,101205.63
2023-03-01T03:33:00.955Z,101207.47
2023-03-01T03:33:32.453Z,101210.25
2023-03-01T03:34:03.976Z,101209.41
2023-03-01T03:34:35.446Z,101206.63
2023-03-01T03:35:06.915Z,101210.75
2023-03-01T03:35:38.404Z,101207.19
2023-03-01T03:36:09.921Z,101209.09
2023-03-01T03:36:41.501Z,101197.94
2023-03-01T03:37:12.983Z,101210.19
2023-03-01T03:37:44.476Z,101201.19
2023-03-01T03:38:15.935Z,101198.78
2023-03-01T03:38:47.365Z,101194.41
2023-03-01T03:39:20.654Z,101200.88
2023-03-01T03:39:52.253Z,101189.66
2023-03-01T03:40:23.742Z,101187.19
2023-03-01T03:40:55.169Z,101192.38
2023-03-01T03:41:26.566Z,101184.53
2023-03-01T03:41:58.113Z,101192.69
2023-03-01T03:42:29.604Z,101181.81
2023-03-01T03:43:00.993Z,101178.25
2023-03-01T03:43:32.436Z,101180.53
2023-03-01T03:44:06.422Z,101176.09
2023-03-01T03:44:37.913Z,101180.72
2023-03-01T03:45:09.459Z,101181.53
2023-03-01T03:45:40.903Z,101176.34
2023-03-01T03:46:12.556Z,101176.66
2023-03-01T03:46:44.024Z,101175.59
2023-03-01T03:47:15.623Z,101177.22
2023-03-01T03:47:47.042Z,101170.44
2023-03-01T03:48:18.562Z,101172.09
2023-03-01T03:48:50.042Z,101166.91
2023-03-01T03:49:21.565Z,101172.88
2023-03-01T03:49:53.047Z,101164.38
2023-03-01T03:50:24.505Z,101169.25
2023-03-01T03:50:56.076Z,101162.72
2023-03-01T03:51:30.488Z,101158.94
2023-03-01T03:52:01.922Z,101160.31
2023-03-01T03:52:33.335Z,101165.75
2023-03-01T03:53:04.797Z,101163.81
2023-03-01T03:53:36.287Z,101167.09
2023-03-01T03:54:07.724Z,101164.13
2023-03-01T03:54:39.310Z,101168.81
2023-03-01T03:55:10.795Z,101163.63
2023-03-01T03:55:42.246Z,101163.34
2023-03-01T03:56:13.674Z,101166.09
2023-03-01T03:56:45.157Z,101159.50
2023-03-01T03:57:16.624Z,101162.28
2023-03-01T03:57:48.109Z,101162.03
2023-03-01T03:58:19.611Z,101159.25
2023-03-01T03:58:51.139Z,101165.19
2023-03-01T03:59:56.980Z,101156.19
2023-03-01T04:00:28.478Z,101156.19
2023-03-01T04:01:00.006Z,101157.28
2023-03-01T04:01:31.606Z,101155.13
2023-03-01T04:02:03.085Z,101156.78
2023-03-01T04:02:34.583Z,101156.47
2023-03-01T04:03:05.993Z,101161.19
2023-03-01T04:03:37.439Z,101156.88
2023-03-01T04:04:11.669Z,101163.66
2023-03-01T04:04:43.102Z,101162.84
2023-03-01T04:05:14.699Z,101163.91
2023-03-01T04:05:46.163Z,101161.75
2023-03-01T04:06:17.613Z,101166.44
2023-03-01T04:06:49.111Z,101167.53
2023-03-01T04:07:23.101Z,101172.91
2023-03-01T04:07:54.600Z,101172.59
2023-03-01T04:08:26.039Z,101169.38
2023-03-01T04:08:57.530Z,101170.72
2023-03-01T04:09:29.069Z,101173.44
2023-03-01T04:10:00.578Z,101170.72
2023-03-01T04:10:32.251Z,101173.44
2023-03-01T04:11:03.772Z,101177.53
2023-03-01T04:11:35.268Z,101170.75
2023-03-01T04:12:06.710Z,101175.38
2023-03-01T04:12:38.161Z,101168.28
2023-03-01T04:13:09.584Z,101173.75
2023-03-01T04:13:41.003Z,101168.88
2023-03-01T04:14:12.457Z,101173.69
2023-03-01T04:14:43.986Z,101172.34
2023-03-01T04:15:15.491Z,101168.81
2023-03-01T04:15:47.094Z,101177.53
2023-03-01T04:16:18.495Z,101170.44
2023-03-01T04:16:50.045Z,101171.03
2023-03-01T04:17:21.561Z,101175.91
2023-03-01T04:17:53.121Z,101174.50
2023-03-01T04:18:27.625Z,101174.56
2023-03-01T04:19:01.746Z,101177.53
2023-03-01T04:19:33.222Z,101183.56
2023-03-01T04:20:04.739Z,101178.06
2023-03-01T04:20:36.216Z,101177.53
2023-03-01T04:21:07.647Z,101177.22
2023-03-01T04:21:39.131Z,101173.44
2023-03-01T04:22:10.564Z,101179.97
2023-03-01T04:22:42.115Z,101178.63
2023-03-01T04:23:13.589Z,101178.56
2023-03-01T04:23:45.022Z,101171.22
2023-03-01T04:24:16.532Z,101171.47
2023-03-01T04:24:48.010Z,101175.84
2023-03-01T04:25:19.493Z,101177.44
2023-03-01T04:25:50.944Z,101175.28
2023-03-01T04:26:22.395Z,101178.25
2023-03-01T04:26:53.840Z,101179.66
2023-03-01T04:27:25.308Z,101178.00
2023-03-01T04:27:57.332Z,101176.34
2023-03-01T04:28:28.786Z,101175.84
2023-03-01T04:29:00.264Z,101172.56
2023-03-01T04:29:31.766Z,101181.03
2023-03-01T04:30:03.190Z,101178.56
2023-03-01T04:30:34.662Z,101179.69
2023-03-01T04:31:09.135Z,101184.59
2023-03-01T04:31:40.647Z,101186.22
2023-03-01T04:32:12.183Z,101181.28
2023-03-01T04:32:43.921Z,101184.59
2023-03-01T04:33:15.431Z,101178.63
2023-03-01T04:33:46.920Z,101184.66
2023-03-01T04:34:18.386Z,101184.34
2023-03-01T04:34:49.891Z,101183.81
2023-03-01T04:35:24.116Z,101181.91
2023-03-01T04:35:55.710Z,101178.13
2023-03-01T04:36:27.496Z,101172.66
2023-03-01T04:37:02.112Z,101175.13
2023-03-01T04:37:33.513Z,101172.72
2023-03-01T04:38:07.756Z,101171.34
2023-03-01T04:38:39.283Z,101168.88
2023-03-01T04:39:10.747Z,101166.72
2023-03-01T04:39:42.294Z,101170.25
2023-03-01T04:40:13.797Z,101164.81
2023-03-01T04:40:45.365Z,101165.31
2023-03-01T04:41:16.804Z,101165.63
2023-03-01T04:41:50.980Z,101159.03
2023-03-01T04:42:22.457Z,101166.34
2023-03-01T04:42:53.962Z,101167.97
2023-03-01T04:43:25.458Z,101168.81
2023-03-01T04:43:56.940Z,101164.44
2023-03-01T04:44:28.383Z,101168.50
2023-03-01T04:44:59.841Z,101172.59
2023-03-01T04:45:31.344Z,101175.91
2023-03-01T04:46:02.915Z,101171.03
2023-03-01T04:46:34.400Z,101170.13
2023-03-01T04:47:05.831Z,101173.63
2023-03-01T04:47:37.321Z,101170.91
2023-03-01T04:48:08.809Z,101174.44
2023-03-01T04:48:40.277Z,101173.94
2023-03-01T04:49:11.759Z,101175.03
2023-03-01T04:49:43.234Z,101169.06
2023-03-01T04:50:14.745Z,101174.81
2023-03-01T04:50:46.232Z,101180.53
2023-03-01T04:51:17.774Z,101173.44
2023-03-01T04:51:49.258Z,101175.06
2023-03-01T04:52:20.713Z,101174.75
2023-03-01T04:52:55.213Z,101175.59
2023-03-01T04:53:26.663Z,101180.28
2023-03-01T04:53:58.279Z,101178.06
2023-03-01T04:54:29.715Z,101183.56
2023-03-01T04:55:01.237Z,101183.25
2023-03-01T04:55:32.810Z,101177.75
2023-03-01T04:56:04.324Z,101174.19
2023-03-01T04:56:35.889Z,101180.22
2023-03-01T04:57:07.417Z,101183.69
2023-03-01T04:57:38.909Z,101185.59
2023-03-01T04:58:10.389Z,101184.47
2023-03-01T04:58:41.885Z,101182.81
2023-03-01T04:59:13.446Z,101177.94
2023-03-01T04:59:44.886Z,101182.00
2023-03-01T05:00:16.356Z,101182.81
2023-03-01T05:00:47.808Z,101184.72
2023-03-01T05:01:19.276Z,101183.06
2023-03-01T05:01:50.771Z,101182.00
2023-03-01T05:02:22.340Z,101178.00
2023-03-01T05:02:53.813Z,101180.47
2023-03-01T05:03:25.354Z,101179.06
2023-03-01T05:03:56.852Z,101170.97
2023-03-01T05:04:28.356Z,101175.91
2023-03-01T05:05:00.104Z,101176.09
2023-03-01T05:05:31.548Z,101177.22
2023-03-01T05:06:02.991Z,101169.63
2023-03-01T05:06:34.504Z,101177.81
2023-03-01T05:07:06.005Z,101178.06
2023-03-01T05:07:37.476Z,101176.97
2023-03-01T05:08:08.977Z,101178.31
2023-03-01T05:08:40.410Z,101175.91
2023-03-01T05:09:11.935Z,101179.13
2023-03-01T05:09:43.394Z,101174.44
2023-03-01T05:10:14.834Z,101181.28
2023-03-01T05:10:46.330Z,101183.50
2023-03-01T05:11:17.823Z,101177.53
2023-03-01T05:11:49.360Z,101180.53
2023-03-01T05:12:20.881Z,101177.22
2023-03-01T05:12:52.342Z,101182.38
2023-03-01T05:13:23.795Z,101174.44
2023-03-01T05:13:55.289Z,101181.81
2023-03-01T05:14:26.732Z,101171.78
2023-03-01T05:14:58.138Z,101176.66
2023-03-01T05:15:29.577Z,101166.34
2023-03-01T05:16:01.077Z,101172.09
2023-03-01T05:16:34.868Z,101173.69
2023-03-01T05:17:07.449Z,101170.72
2023-03-01T05:17:39.016Z,101174.50
2023-03-01T05:18:10.464Z,101174.25
2023-03-01T05:18:41.945Z,101170.97
2023-03-01T05:19:13.954Z,101167.66
2023-03-01T05:19:45.489Z,101168.25
2023-03-01T05:20:17.009Z,101172.56
2023-03-01T05:20:48.486Z,101166.53
2023-03-01T05:21:20.011Z,101162.22
2023-03-01T05:22:22.889Z,101166.28
2023-03-01T05:23:25.919Z,101162.47
2023-03-01T05:23:57.393Z,101162.22
2023-03-01T05:24:28.798Z,101158.94
2023-03-01T05:25:00.245Z,101159.81
2023-03-01T05:25:31.786Z,101151.38
2023-03-01T05:26:07.544Z,101155.69
2023-03-01T05:26:39.185Z,101153.28
2023-03-01T05:27:10.722Z,101151.13
2023-03-01T05:27:42.143Z,101157.66
2023-03-01T05:28:13.695Z,101148.34
2023-03-01T05:28:45.294Z,101149.16
2023-03-01T05:29:16.753Z,101156.25
2023-03-01T05:29:48.228Z,101147.56
2023-03-01T05:30:19.689Z,101153.59
2023-03-01T05:30:51.222Z,101150.31
2023-03-01T05:31:22.755Z,101150.81
2023-03-01T05:31:54.283Z,101147.84
2023-03-01T05:32:25.745Z,101150.50
2023-03-01T05:32:57.378Z,101153.22
2023-03-01T05:33:28.830Z,101152.97
2023-03-01T05:34:03.149Z,101150.00
2023-03-01T05:34:37.191Z,101144.84
2023-03-01T05:35:08.684Z,101148.59
2023-03-01T05:35:40.180Z,101154.94
2023-03-01T05:36:11.610Z,101152.47
2023-03-01T05:36:43.033Z,101145.88
2023-03-01T05:37:14.474Z,101155.13
2023-03-01T05:37:45.936Z,101153.72
2023-03-01T05:38:17.396Z,101152.16
2023-03-01T05:38:48.961Z,101154.31
2023-03-01T05:39:20.436Z,101154.56
2023-03-01T05:39:51.893Z,101153.47
2023-03-01T05:40:23.309Z,101150.75
2023-03-01T05:40:54.829Z,101161.41
2023-03-01T05:41:26.274Z,101161.47
2023-03-01T05:41:57.726Z,101161.13
2023-03-01T05:42:29.188Z,101155.44
2023-03-01T05:43:00.756Z,101158.97
2023-03-01T05:43:32.324Z,101155.44
2023-03-01T05:44:05.682Z,101158.72
2023-03-01T05:44:37.152Z,101161.09
2023-03-01T05:45:08.618Z,101161.13
2023-03-01T05:45:40.130Z,101162.16
2023-03-01T05:46:13.511Z,101166.53
2023-03-01T05:46:45.013Z,101161.91
2023-03-01T05:47:16.460Z,101167.91
2023-03-01T05:47:50.995Z,101156.47
2023-03-01T05:48:22.474Z,101160.78
2023-03-01T05:48:53.943Z,101155.00
2023-03-01T05:49:25.450Z,101156.16
2023-03-01T05:49:56.982Z,101164.31
2023-03-01T05:50:28.447Z,101163.56
2023-03-01T05:50:59.868Z,101163.56
2023-03-01T05:51:31.408Z,101166.03
2023-03-01T05:52:05.654Z,101161.91
2023-03-01T05:52:37.150Z,101158.66
2023-03-01T05:53:08.685Z,101160.00
2023-03-01T05:53:40.227Z,101159.25
2023-03-01T05:54:11.704Z,101160.88
2023-03-01T05:54:43.257Z,101161.19
2023-03-01T05:55:14.679Z,101161.47
2023-03-01T05:55:46.137Z,101165.00
2023-03-01T05:56:17.699Z,101168.25
2023-03-01T05:56:49.106Z,101164.38
2023-03-01T05:57:20.553Z,101162.72
2023-03-01T05:57:52.032Z,101162.22
2023-03-01T05:58:23.527Z,101161.09
2023-03-01T05:58:55.024Z,101159.75
2023-03-01T05:59:26.506Z,101158.09
2023-03-01T05:59:57.918Z,101155.38
2023-03-01T06:00:29.390Z,101161.13
2023-03-01T06:01:00.904Z,101153.53
2023-03-01T06:01:32.446Z,101156.25
2023-03-01T06:02:03.971Z,101158.97
2023-03-01T06:02:35.385Z,101160.06